Aeroporto :
LOGIN :

Iscrizione | Disclaimer

   EN    FR    IT 

 










Sommario :    VFR   VFR Marginale   IFR   IFR Intensivo   IFR Molto Intensivo
Visibilità : 
Base nubi : 
>= 8 km
>= 3000ft
5 / 8 km
1000 / 3000 ft
1500m / 5 km
500 / 1000 ft
800 / 1500m
200 / 500 ft
< 800m
< 200 ft
Simboli :   Temporali  Nebbia  Neve Forte  Precipitazioni Forti  Vento > 20 kt
SIGMETs :   Varie  Temporali  Ghiacco  Turbolenza  Onda orograficha  Ceneri Vulcaniche






- Altitudine del aeroporto : 1487 ft
- Codice IATA : MUC


EDDM - München Franz Josef Strauss

ULTIMO METAR :
  • 121250Z 19004KT CAVOK 06/03 Q1007 NOSIG

METARs OBSOLETI :
  • 121220Z 19005KT 160V220 9999 FEW020 06/02 Q1007 NOSIG
  • 121150Z 19005KT 9999 FEW020 06/03 Q1008 NOSIG
  • 121120Z 21005KT 180V260 9999 FEW020 06/03 Q1007 NOSIG
  • 121050Z 22005KT 170V260 9999 FEW020 SCT030 05/03 Q1008 NOSIG
  • 121020Z 22006KT 9999 FEW020 BKN030 05/03 Q1009 NOSIG

TAF TAF EDDM
Valido dal 12 a 12 ore il 13 a 18 ore UTC


121100Z 1212/1318 22005KT 9999 FEW020 BKN030
TEMPO 1214/1222 16005KT
BECMG 1221/1223 BKN012
TEMPO 1223/1310 4000 -RADZ BKN007
PROB40
TEMPO 1301/1308 2500 SNRA BKN004
BECMG 1307/1309 28005KT
BECMG 1309/1312 BKN015
PROB30
TEMPO 1312/1318 4500 -RADZ BKN012



MetMap, La meteo Aeronautica in un colpo d'occhio ! - Copyright ORBIFLY Dicembre 2007 - Disclaimer

ORBIFLY MET'MAP TEAM :

Programmazione e sviluppo : Alexandra Zaïnal
Concezione e sviluppo : Baudouin d'Aumeries
Co-Programmazione e sviluppo : Marc-Olivier Méhu
Supporto tecnico e logistico : Manuel Goepfert
Aiuto per la traduzione : Arnaldo La Scala

Contatto : metmap@orbifly.com




FONTI E CREDITI :

   NOAA